Noi Bai International Airport
VVNB : rendu visible

Aérodrome :











RETROUVEZ-NOUS SUR...

 
LOGIN :

S'inscrire | Disclaimer

   EN    FR    IT 

 









Légende :    VFR   VFR Marginal   IFR   IFR Intensif   IFR Très Intensif
Visi : 
Plafond : 
>= 8 km
>= 3000ft
5 à 8 km
1000 à 3000 ft
1500m à 5 km
500 à 1000 ft
800 à 1500m
200 à 500 ft
< 800m
< 200 ft
Symboles :   Orages  Brouillard  Fortes neiges  Fortes précipitations  Vent > 20 kt






- Altitude de l'aérodrome : 39 ft
- Code IATA : HAN


VVNB - Noi Bai International

DERNIER METAR :
  • 111300Z VRB02KT 9999 FEW010 31/21 Q1001 NOSIG

METARs EXPIRÉS :
  • 111230Z 19003KT 140V260 CAVOK 31/21 Q1001 NOSIG
  • 111200Z 19004KT 100V240 CAVOK 31/21 Q1001 NOSIG
  • 111130Z 19006KT 150V220 CAVOK 32/21 Q1001 NOSIG
  • 111100Z 19005KT 130V210 CAVOK 32/21 Q1001 NOSIG
  • 111030Z 20006KT 170V230 CAVOK 32/21 Q1001 NOSIG

TAF TAF VVNB
Valide du 11 à 12h jusqu'au 12 à 12h UTC


111100Z 1112/1212 18007KT 8000 SCT017 BKN050
TEMPO 1122/1204 VRB15G28KT 3000 +TSRA BKN010 SCT027CB OVC040
FIR VVVV / Asie



MET'MAP, la Météo Aéronautique d'un coup d'oeil ! - Copyright ORBIFLY Décembre 2007 - Disclaimer

ORBIFLY MET'MAP TEAM :

Programmation & Développement : Alexandra Zaïnal
Sur une idée originale de : Baudouin d'Aumeries
Assistance à la programmation : Marc-Olivier Méhu
Soutien technique & logistique : Manuel Goepfert

Contact : metmap@orbifly.com




SOURCES & CREDITS :

   NOAA       Earth
Advisory